Time;durP1;ratioP1;P1;durP2;ratioP2;P2;SDS_P1;SDS_P2;PMS_P1;PMS_P2;Temp;Humidity;BMP_temperature;BMP_pressure;BME280_temperature;BME280_humidity;BME280_pressure;Samples;Min_cycle;Max_cycle;Signal;HPM_P1;HPM_P2
2021/09/25 00:01:36;;;;;;;5.2;3.3;;;;;;;;;;;;;
2021/09/25 00:04:02;;;;;;;5.2;3.7;;;;;;;;;;;;;
2021/09/25 00:06:29;;;;;;;4.1;3.3;;;;;;;;;;;;;
2021/09/25 00:08:54;;;;;;;3.9;3.3;;;;;;;;;;;;;
2021/09/25 00:11:19;;;;;;;3.7;3.3;;;;;;;;;;;;;
2021/09/25 00:13:44;;;;;;;3.8;3.3;;;;;;;;;;;;;
2021/09/25 00:16:11;;;;;;;4.9;3.9;;;;;;;;;;;;;
2021/09/25 00:18:35;;;;;;;4.6;3.4;;;;;;;;;;;;;
2021/09/25 00:21:00;;;;;;;3.6;3.2;;;;;;;;;;;;;
2021/09/25 00:23:25;;;;;;;4.1;3.2;;;;;;;;;;;;;
2021/09/25 00:25:50;;;;;;;3.5;2.9;;;;;;;;;;;;;
2021/09/25 00:28:16;;;;;;;4.8;3.3;;;;;;;;;;;;;
2021/09/25 00:30:41;;;;;;;4.6;3.1;;;;;;;;;;;;;
2021/09/25 00:33:06;;;;;;;3.5;2.7;;;;;;;;;;;;;
2021/09/25 00:35:31;;;;;;;3.7;3;;;;;;;;;;;;;
2021/09/25 00:37:57;;;;;;;4.3;3.2;;;;;;;;;;;;;
2021/09/25 00:40:22;;;;;;;4.6;3.3;;;;;;;;;;;;;
2021/09/25 00:42:48;;;;;;;4.5;3.4;;;;;;;;;;;;;
2021/09/25 00:45:13;;;;;;;4.9;3.4;;;;;;;;;;;;;
2021/09/25 00:47:38;;;;;;;4.5;3.4;;;;;;;;;;;;;
2021/09/25 00:50:03;;;;;;;4.6;3.1;;;;;;;;;;;;;
2021/09/25 00:52:28;;;;;;;3.6;3.2;;;;;;;;;;;;;
2021/09/25 00:54:53;;;;;;;3.7;3.2;;;;;;;;;;;;;
2021/09/25 00:57:18;;;;;;;4.1;3.3;;;;;;;;;;;;;
2021/09/25 01:00:00;;;;;;;3.8;3.2;;;;;;;;;;;;;
2021/09/25 01:02:25;;;;;;;3.5;3;;;;;;;;;;;;;
2021/09/25 01:04:51;;;;;;;5.5;3.4;;;;;;;;;;;;;
2021/09/25 01:07:16;;;;;;;5.2;3.4;;;;;;;;;;;;;
2021/09/25 01:09:41;;;;;;;4.3;3;;;;;;;;;;;;;
2021/09/25 01:12:06;;;;;;;3.8;3;;;;;;;;;;;;;
2021/09/25 01:14:31;;;;;;;4.2;3.3;;;;;;;;;;;;;
2021/09/25 01:16:57;;;;;;;4.1;3.1;;;;;;;;;;;;;
2021/09/25 01:19:22;;;;;;;4.4;3.1;;;;;;;;;;;;;
2021/09/25 01:21:47;;;;;;;4.5;2.9;;;;;;;;;;;;;
2021/09/25 01:24:14;;;;;;;4;3.2;;;;;;;;;;;;;
2021/09/25 01:26:39;;;;;;;3.8;3;;;;;;;;;;;;;
2021/09/25 01:29:04;;;;;;;3.7;3;;;;;;;;;;;;;
2021/09/25 01:31:29;;;;;;;3.8;2.9;;;;;;;;;;;;;
2021/09/25 01:33:54;;;;;;;3.6;3;;;;;;;;;;;;;
2021/09/25 01:36:19;;;;;;;3.6;2.9;;;;;;;;;;;;;
2021/09/25 01:38:44;;;;;;;3.9;3.1;;;;;;;;;;;;;
2021/09/25 01:41:09;;;;;;;5.9;2.8;;;;;;;;;;;;;
2021/09/25 01:43:35;;;;;;;3.6;2.9;;;;;;;;;;;;;
2021/09/25 01:46:03;;;;;;;16.5;4.8;;;;;;;;;;;;;
2021/09/25 01:48:28;;;;;;;5.5;3.3;;;;;;;;;;;;;
2021/09/25 01:50:53;;;;;;;4.4;3.2;;;;;;;;;;;;;
2021/09/25 01:53:18;;;;;;;3.4;2.7;;;;;;;;;;;;;
2021/09/25 01:55:44;;;;;;;3.8;2.7;;;;;;;;;;;;;
2021/09/25 01:58:09;;;;;;;4.8;3.5;;;;;;;;;;;;;
2021/09/25 02:00:34;;;;;;;4.8;3.4;;;;;;;;;;;;;
2021/09/25 02:03:00;;;;;;;3.4;3.1;;;;;;;;;;;;;
2021/09/25 02:05:25;;;;;;;4;3.1;;;;;;;;;;;;;
2021/09/25 02:07:50;;;;;;;5.3;3.3;;;;;;;;;;;;;
2021/09/25 02:10:15;;;;;;;4.6;3.2;;;;;;;;;;;;;
2021/09/25 02:12:40;;;;;;;4;3;;;;;;;;;;;;;
2021/09/25 02:15:07;;;;;;;3.6;2.8;;;;;;;;;;;;;
2021/09/25 02:17:32;;;;;;;3.8;3.1;;;;;;;;;;;;;
2021/09/25 02:20:00;;;;;;;3.3;2.7;;;;;;;;;;;;;
2021/09/25 02:22:25;;;;;;;3.3;3;;;;;;;;;;;;;
2021/09/25 02:24:50;;;;;;;4.4;3.3;;;;;;;;;;;;;
2021/09/25 02:27:15;;;;;;;3.2;2.9;;;;;;;;;;;;;
2021/09/25 02:29:41;;;;;;;3.4;3.1;;;;;;;;;;;;;
2021/09/25 02:32:06;;;;;;;3.1;2.8;;;;;;;;;;;;;
2021/09/25 02:34:35;;;;;;;3.3;2.8;;;;;;;;;;;;;
2021/09/25 02:37:00;;;;;;;4.2;2.7;;;;;;;;;;;;;
2021/09/25 02:39:25;;;;;;;4.1;2.9;;;;;;;;;;;;;
2021/09/25 02:41:50;;;;;;;2.9;2.6;;;;;;;;;;;;;
2021/09/25 02:44:15;;;;;;;3.5;3;;;;;;;;;;;;;
2021/09/25 02:46:40;;;;;;;3.2;2.7;;;;;;;;;;;;;
2021/09/25 02:49:05;;;;;;;4.2;3;;;;;;;;;;;;;
2021/09/25 02:51:32;;;;;;;3.2;2.6;;;;;;;;;;;;;
2021/09/25 02:53:57;;;;;;;3;2.6;;;;;;;;;;;;;
2021/09/25 02:56:23;;;;;;;3.7;2.7;;;;;;;;;;;;;
2021/09/25 02:58:48;;;;;;;4.4;2.8;;;;;;;;;;;;;
2021/09/25 03:01:13;;;;;;;4;3.1;;;;;;;;;;;;;
2021/09/25 03:03:38;;;;;;;4;2.6;;;;;;;;;;;;;
2021/09/25 03:06:03;;;;;;;3.2;2.7;;;;;;;;;;;;;
2021/09/25 03:08:28;;;;;;;3.1;2.8;;;;;;;;;;;;;
2021/09/25 03:10:53;;;;;;;4.9;3.1;;;;;;;;;;;;;
2021/09/25 03:13:19;;;;;;;2.9;2.6;;;;;;;;;;;;;
2021/09/25 03:15:47;;;;;;;3.8;2.7;;;;;;;;;;;;;
2021/09/25 03:18:13;;;;;;;3.2;2.7;;;;;;;;;;;;;
2021/09/25 03:20:38;;;;;;;3.8;3;;;;;;;;;;;;;
2021/09/25 03:23:03;;;;;;;3.4;2.8;;;;;;;;;;;;;
2021/09/25 03:25:29;;;;;;;4.2;3;;;;;;;;;;;;;
2021/09/25 03:27:55;;;;;;;3.6;2.8;;;;;;;;;;;;;
2021/09/25 03:30:19;;;;;;;2.6;2.4;;;;;;;;;;;;;
2021/09/25 03:32:45;;;;;;;3.3;2.9;;;;;;;;;;;;;
2021/09/25 03:35:09;;;;;;;3.2;2.8;;;;;;;;;;;;;
2021/09/25 03:37:34;;;;;;;2.8;2.4;;;;;;;;;;;;;
2021/09/25 03:39:59;;;;;;;4.1;2.7;;;;;;;;;;;;;
2021/09/25 03:42:24;;;;;;;4.1;2.4;;;;;;;;;;;;;
2021/09/25 03:44:49;;;;;;;3.4;2.6;;;;;;;;;;;;;
2021/09/25 03:47:15;;;;;;;3.5;2.6;;;;;;;;;;;;;
2021/09/25 03:49:42;;;;;;;3.1;2.7;;;;;;;;;;;;;
2021/09/25 03:52:07;;;;;;;3.6;2.5;;;;;;;;;;;;;
2021/09/25 03:54:34;;;;;;;3;2.5;;;;;;;;;;;;;
2021/09/25 03:57:00;;;;;;;4.9;2.8;;;;;;;;;;;;;
2021/09/25 03:59:25;;;;;;;4.5;2.7;;;;;;;;;;;;;
2021/09/25 04:02:31;;;;;;;3.4;2.6;;;;;;;10.08;93.56055;940.8181;;;;
2021/09/25 04:04:56;;;;;;;7;2.6;;;;;;;10;94.26172;940.8332;;;;
2021/09/25 04:07:26;;;;;;;3.2;2.4;;;;;;;10.07;93.57031;940.8226;;;;
2021/09/25 04:09:51;;;;;;;3.1;2.7;;;;;;;10.12;92.88379;940.7789;;;;
2021/09/25 04:12:17;;;;;;;3.4;2.5;;;;;;;10.08;92.9541;940.8403;;;;
2021/09/25 04:14:42;;;;;;;5.3;2.6;;;;;;;9.95;93.40625;940.7466;;;;
2021/09/25 04:17:07;;;;;;;3.7;2.4;;;;;;;9.86;94.08398;940.7762;;;;
2021/09/25 04:19:32;;;;;;;3.1;2.6;;;;;;;9.81;94.45898;940.6839;;;;
2021/09/25 04:21:59;;;;;;;3;2.4;;;;;;;9.87;94.33594;940.7039;;;;
2021/09/25 04:24:24;;;;;;;2.6;2.2;;;;;;;9.83;94.93066;940.6572;;;;
2021/09/25 04:26:58;;;;;;;3.1;2.6;;;;;;;9.93;94.84961;940.6898;;;;
2021/09/25 04:29:27;;;;;;;2.7;2.1;;;;;;;9.86;94.72168;940.6601;;;;
2021/09/25 04:31:52;;;;;;;3.2;2.6;;;;;;;9.84;94.43262;940.69;;;;
2021/09/25 04:34:20;;;;;;;3.1;2.7;;;;;;;9.7;95.4248;940.7303;;;;
2021/09/25 04:36:45;;;;;;;5;2.8;;;;;;;9.46;96.5918;940.6895;;;;
2021/09/25 04:39:12;;;;;;;3.3;2.4;;;;;;;9.49;97.03027;940.6509;;;;
2021/09/25 04:41:38;;;;;;;3.1;2.6;;;;;;;9.63;96.48242;940.6711;;;;
2021/09/25 04:44:04;;;;;;;5.9;2.8;;;;;;;9.71;95.30176;940.5603;;;;
2021/09/25 04:46:30;;;;;;;3.2;2.7;;;;;;;9.73;94.86328;940.6965;;;;
2021/09/25 04:48:58;;;;;;;3.7;2.6;;;;;;;9.7;95.24316;940.6866;;;;
2021/09/25 04:51:23;;;;;;;2.6;2.4;;;;;;;9.77;94.3584;940.7728;;;;
2021/09/25 04:53:53;;;;;;;3.7;2.6;;;;;;;9.8;93.68066;940.7064;;;;
2021/09/25 04:56:18;;;;;;;3.9;2.8;;;;;;;9.81;93.85547;940.7125;;;;
2021/09/25 04:58:45;;;;;;;5.7;2.6;;;;;;;9.81;93.36523;940.608;;;;
2021/09/25 05:01:10;;;;;;;2.6;2.4;;;;;;;9.75;93.55664;940.736;;;;
2021/09/25 05:03:35;;;;;;;5;2.5;;;;;;;9.78;93.53027;940.7197;;;;
2021/09/25 05:06:01;;;;;;;3.2;2.6;;;;;;;9.72;94.04102;940.7307;;;;
2021/09/25 05:08:25;;;;;;;2.7;2.4;;;;;;;9.6;94.99316;940.6799;;;;
2021/09/25 05:10:53;;;;;;;4.2;2.6;;;;;;;9.63;94.71387;940.6305;;;;
2021/09/25 05:13:18;;;;;;;4.7;2.8;;;;;;;9.63;94.65918;940.7101;;;;
2021/09/25 05:15:43;;;;;;;3.8;2.5;;;;;;;9.69;94.24023;940.7517;;;;
2021/09/25 05:18:09;;;;;;;3.2;2.4;;;;;;;9.7;93.66992;940.7486;;;;
2021/09/25 05:20:34;;;;;;;3.7;2.4;;;;;;;9.73;93.52051;940.7921;;;;
2021/09/25 05:22:59;;;;;;;3.4;2.5;;;;;;;9.67;94.09766;940.725;;;;
2021/09/25 05:25:30;;;;;;;4.9;3.3;;;;;;;9.68;94.87598;940.7618;;;;
2021/09/25 05:27:56;;;;;;;3.4;2.9;;;;;;;9.78;93.84766;940.8031;;;;
2021/09/25 05:30:21;;;;;;;3.8;2.7;;;;;;;9.88;92.86621;940.7478;;;;
2021/09/25 05:32:47;;;;;;;2.9;2.6;;;;;;;9.84;92.43652;940.7511;;;;
2021/09/25 05:35:12;;;;;;;4.8;2.9;;;;;;;9.7;93.28418;940.8114;;;;
2021/09/25 05:37:41;;;;;;;5.1;3.3;;;;;;;9.73;93.37012;940.8293;;;;
2021/09/25 05:40:06;;;;;;;3.8;3;;;;;;;9.77;93.03613;940.8348;;;;
2021/09/25 05:42:31;;;;;;;4.4;2.7;;;;;;;9.66;93.35645;940.8983;;;;
2021/09/25 05:44:56;;;;;;;4.2;2.7;;;;;;;9.68;93.5293;940.8293;;;;
2021/09/25 05:47:21;;;;;;;3.8;2.9;;;;;;;9.84;94.06641;940.8481;;;;
2021/09/25 05:49:47;;;;;;;2.9;2.4;;;;;;;10.35;91.85059;940.7892;;;;
2021/09/25 05:52:14;;;;;;;3.2;2.2;;;;;;;10.9;89.24707;940.7877;;;;
2021/09/25 05:54:39;;;;;;;2.9;1.9;;;;;;;11.36;86.58594;940.7631;;;;
2021/09/25 05:57:06;;;;;;;4.4;2.7;;;;;;;11.22;87.27734;940.7888;;;;
2021/09/25 05:59:31;;;;;;;3.8;2.4;;;;;;;11.51;85.50586;940.7658;;;;
2021/09/25 06:01:56;;;;;;;2.5;2.1;;;;;;;11.53;84.90137;940.7946;;;;
2021/09/25 06:04:22;;;;;;;3.7;2.1;;;;;;;11.38;85.77539;940.7729;;;;
2021/09/25 06:06:46;;;;;;;2.9;2.5;;;;;;;12.01;83.46191;940.7897;;;;
2021/09/25 06:09:12;;;;;;;4.9;2.5;;;;;;;12.22;82.16992;940.8106;;;;
2021/09/25 06:11:37;;;;;;;3.8;2.3;;;;;;;12.46;80.95508;940.791;;;;
2021/09/25 06:14:05;;;;;;;2.3;2.1;;;;;;;12.66;80.33984;940.7117;;;;
2021/09/25 06:16:30;;;;;;;3.8;2.3;;;;;;;12.97;80.13281;940.7414;;;;
2021/09/25 06:18:56;;;;;;;2.2;2;;;;;;;12.64;80.01367;940.698;;;;
2021/09/25 06:21:23;;;;;;;4.2;2.7;;;;;;;12.54;80.97168;940.6605;;;;
2021/09/25 06:23:48;;;;;;;6;3.4;;;;;;;12.6;81.70508;940.6121;;;;
2021/09/25 06:26:16;;;;;;;4.5;3;;;;;;;12.8;81.09961;940.5997;;;;
2021/09/25 06:31:41;;;;;;;5.8;3.7;;;;;;;13.06;80.42285;940.5535;;;;
2021/09/25 06:34:06;;;;;;;5;3.4;;;;;;;13.14;80.71387;940.425;;;;
2021/09/25 06:36:34;;;;;;;3.5;2.8;;;;;;;13.32;79.3916;940.4892;;;;
2021/09/25 06:38:57;;;;;;;2.4;1.9;;;;;;;13.53;78.41895;940.5171;;;;
2021/09/25 06:41:26;;;;;;;2.9;2.3;;;;;;;13.78;76.38281;940.3649;;;;
2021/09/25 06:43:51;;;;;;;3.8;2.4;;;;;;;13.95;75.21387;940.466;;;;
2021/09/25 06:46:19;;;;;;;5.5;2.3;;;;;;;14.15;73.17773;940.4622;;;;
2021/09/25 06:48:47;;;;;;;2.4;1.8;;;;;;;14.35;72.58789;940.4735;;;;
2021/09/25 06:51:09;;;;;;;2.8;2.3;;;;;;;14.58;71.23242;940.4288;;;;
2021/09/25 06:53:35;;;;;;;4.1;2.5;;;;;;;14.82;71.59473;940.4263;;;;
2021/09/25 06:56:01;;;;;;;5.3;2.8;;;;;;;15.06;69.07324;940.4031;;;;
2021/09/25 06:58:26;;;;;;;3.6;2.4;;;;;;;15.16;70.10352;940.3962;;;;
2021/09/25 07:00:51;;;;;;;4.8;2.6;;;;;;;15.3;69.74512;940.4199;;;;
2021/09/25 07:03:22;;;;;;;3.6;2.4;;;;;;;15.48;71.16992;940.4185;;;;
2021/09/25 07:05:50;;;;;;;3;2.1;;;;;;;15.51;68.46191;940.3853;;;;
2021/09/25 07:08:15;;;;;;;2.5;2.2;;;;;;;15.63;69.33691;940.4164;;;;
2021/09/25 07:10:40;;;;;;;3.1;2.3;;;;;;;15.92;67.11523;940.3617;;;;
2021/09/25 07:13:05;;;;;;;3;2.3;;;;;;;16.03;66.23145;940.3867;;;;
2021/09/25 07:15:31;;;;;;;3.8;1.9;;;;;;;15.86;67.5459;940.3396;;;;
2021/09/25 07:17:56;;;;;;;2.2;2;;;;;;;16.05;67.38867;940.3875;;;;
2021/09/25 07:20:21;;;;;;;3.4;2;;;;;;;16.2;67.07813;940.4094;;;;
2021/09/25 07:22:50;;;;;;;3.1;2.1;;;;;;;16.18;66.95898;940.3606;;;;
2021/09/25 07:25:11;;;;;;;2;1.8;;;;;;;15.84;67.08105;940.457;;;;
2021/09/25 07:27:38;;;;;;;3.2;2;;;;;;;16.17;66.78418;940.445;;;;
2021/09/25 07:30:03;;;;;;;3.9;1.9;;;;;;;16.25;65.74512;940.4326;;;;
2021/09/25 07:32:28;;;;;;;4.7;2.3;;;;;;;16.66;65.06348;940.4268;;;;
2021/09/25 07:34:54;;;;;;;2.9;1.9;;;;;;;17;60.29395;940.4149;;;;
2021/09/25 07:37:19;;;;;;;3.1;1.6;;;;;;;17.23;61.19531;940.4085;;;;
2021/09/25 07:39:44;;;;;;;2.2;1.6;;;;;;;17.43;61.4668;940.4239;;;;
2021/09/25 07:42:09;;;;;;;2;1.8;;;;;;;17.55;59.38281;940.4125;;;;
2021/09/25 07:44:35;;;;;;;1.8;1.6;;;;;;;17.76;57.82227;940.4375;;;;
2021/09/25 07:46:59;;;;;;;2.3;1.9;;;;;;;18.06;58.44043;940.4142;;;;
2021/09/25 07:49:25;;;;;;;1.8;1.7;;;;;;;18.3;60.55371;940.3904;;;;
2021/09/25 07:51:50;;;;;;;1.6;1.5;;;;;;;18.33;58.30371;940.3753;;;;
2021/09/25 07:54:15;;;;;;;1.5;1.4;;;;;;;18.63;58.35449;940.358;;;;
2021/09/25 07:56:40;;;;;;;1.6;1.5;;;;;;;18.89;57.09668;940.4149;;;;
2021/09/25 07:59:05;;;;;;;2.2;1.5;;;;;;;19.4;56.19629;940.3898;;;;
2021/09/25 08:01:34;;;;;;;2.5;1.6;;;;;;;20.44;54.22559;940.3803;;;;
2021/09/25 08:03:59;;;;;;;1.5;1.4;;;;;;;21.16;51.17871;940.3329;;;;
2021/09/25 08:06:24;;;;;;;2.9;1.5;;;;;;;21.2;51.16113;940.3292;;;;
2021/09/25 08:08:49;;;;;;;1.5;1.4;;;;;;;22.05;49.86328;940.3582;;;;
2021/09/25 08:11:18;;;;;;;1.4;1.3;;;;;;;23.17;47.44043;940.3664;;;;
2021/09/25 08:13:43;;;;;;;2.5;1.6;;;;;;;24.37;45.62402;940.3667;;;;
2021/09/25 08:16:08;;;;;;;1.5;1.3;;;;;;;24.3;43.13086;940.3283;;;;
2021/09/25 08:18:33;;;;;;;1.7;1.4;;;;;;;24.59;43.48828;940.3997;;;;
2021/09/25 08:21:03;;;;;;;1.9;1.6;;;;;;;24.4;43.81055;940.3521;;;;
2021/09/25 08:23:28;;;;;;;2;1.4;;;;;;;24.37;42.65332;940.3474;;;;
2021/09/25 08:25:54;;;;;;;1.5;1.4;;;;;;;26.35;39.86133;940.3063;;;;
2021/09/25 08:28:18;;;;;;;2.6;1.3;;;;;;;26.29;39.57129;940.2436;;;;
2021/09/25 08:30:44;;;;;;;1.9;1.2;;;;;;;28.34;36.83984;940.2447;;;;
2021/09/25 08:33:13;;;;;;;1.5;1.4;;;;;;;29.04;34.64746;940.3022;;;;
2021/09/25 08:35:39;;;;;;;1.4;1.3;;;;;;;29.24;32.04199;940.3049;;;;
2021/09/25 08:38:04;;;;;;;10.9;3.9;;;;;;;29.01;33.00098;940.2919;;;;
2021/09/25 08:40:31;;;;;;;171.5;46.3;;;;;;;29.38;32.61133;940.2723;;;;
2021/09/25 08:42:55;;;;;;;686.8;161.1;;;;;;;28.42;31.6377;940.2675;;;;
2021/09/25 08:45:20;;;;;;;1475.2;474.4;;;;;;;29.97;31.52148;940.255;;;;
2021/09/25 08:47:54;;;;;;;960.6;301.9;;;;;;;29.34;31.5;940.2209;;;;
2021/09/25 08:50:19;;;;;;;156.3;46.1;;;;;;;29.24;31.2793;940.2228;;;;
2021/09/25 08:52:44;;;;;;;891.3;257.8;;;;;;;29.97;30.51855;940.2281;;;;
2021/09/25 08:55:09;;;;;;;1999.9;613.5;;;;;;;28.93;32.55566;940.2355;;;;
2021/09/25 08:57:34;;;;;;;771.3;194.6;;;;;;;27.99;34.63672;940.1916;;;;
2021/09/25 08:59:59;;;;;;;1191.1;290.3;;;;;;;26.61;36.66211;940.1689;;;;
2021/09/25 09:02:25;;;;;;;829.8;205.3;;;;;;;26.27;38.23145;940.2047;;;;
2021/09/25 09:04:50;;;;;;;406.8;91.8;;;;;;;26.05;38.1543;940.2326;;;;
2021/09/25 09:07:15;;;;;;;924.7;216.4;;;;;;;25.29;38.64453;940.1643;;;;
2021/09/25 09:09:44;;;;;;;129.4;29.7;;;;;;;25.59;39.23828;940.1369;;;;
2021/09/25 09:12:09;;;;;;;104.7;24.3;;;;;;;25.53;38.34668;940.1846;;;;
2021/09/25 09:14:35;;;;;;;21.2;5.9;;;;;;;25.31;37.92676;940.1476;;;;
2021/09/25 09:17:01;;;;;;;18.9;5.3;;;;;;;25.81;37.16504;940.0818;;;;
2021/09/25 09:19:26;;;;;;;199.9;39.5;;;;;;;25.11;38.61719;940.1106;;;;
2021/09/25 09:21:52;;;;;;;13.6;5;;;;;;;24.96;38.43848;940.0931;;;;
2021/09/25 09:24:17;;;;;;;8.2;3.7;;;;;;;25.01;37.66406;940.0652;;;;
2021/09/25 09:26:42;;;;;;;15.3;3.2;;;;;;;25.26;37.82715;940.052;;;;
2021/09/25 09:29:08;;;;;;;66.7;13.6;;;;;;;25.62;38.45996;939.9995;;;;
2021/09/25 09:31:33;;;;;;;90.6;22.8;;;;;;;25.71;38.50293;940.0328;;;;
2021/09/25 09:33:58;;;;;;;40.2;11.8;;;;;;;25.51;36.53809;939.9686;;;;
2021/09/25 09:36:26;;;;;;;39.6;8.6;;;;;;;25.42;39.43457;939.9213;;;;
2021/09/25 09:38:54;;;;;;;63.1;11.9;;;;;;;25.15;38.73926;939.9402;;;;
2021/09/25 09:41:16;;;;;;;5.2;1.8;;;;;;;24.39;38.2959;939.9387;;;;
2021/09/25 09:43:42;;;;;;;1.6;1.5;;;;;;;24.78;40.64063;939.9304;;;;
2021/09/25 09:46:07;;;;;;;1.9;1.4;;;;;;;24.3;38.9834;939.9392;;;;
2021/09/25 09:48:33;;;;;;;1.9;1.4;;;;;;;24.7;38.74609;939.884;;;;
2021/09/25 09:50:58;;;;;;;1.9;1.2;;;;;;;24.61;39.12793;939.8362;;;;
2021/09/25 09:53:23;;;;;;;1.4;1.3;;;;;;;24.7;38.77051;939.7933;;;;
2021/09/25 09:55:48;;;;;;;1.3;1.2;;;;;;;24.7;38.99414;939.7659;;;;
2021/09/25 09:58:13;;;;;;;1.7;1.4;;;;;;;24.94;37.66992;939.7551;;;;
2021/09/25 10:00:38;;;;;;;2.3;1.6;;;;;;;25.09;38.48535;939.7548;;;;
2021/09/25 10:03:03;;;;;;;1.7;1.6;;;;;;;24.71;40.2334;939.7045;;;;
2021/09/25 10:05:28;;;;;;;1.3;1.2;;;;;;;24.67;40.6543;939.7355;;;;
2021/09/25 10:07:54;;;;;;;1.9;1.3;;;;;;;25.14;38.43066;939.6694;;;;
2021/09/25 10:10:19;;;;;;;1.4;1.3;;;;;;;25.4;38.14648;939.697;;;;
2021/09/25 10:12:44;;;;;;;4.6;1.5;;;;;;;25.39;38.73633;939.6475;;;;
2021/09/25 10:15:13;;;;;;;1.7;1.3;;;;;;;24.79;40.79492;939.6348;;;;
2021/09/25 10:17:38;;;;;;;1.6;1.3;;;;;;;25.14;37.99414;939.6057;;;;
2021/09/25 10:20:03;;;;;;;1.9;1.6;;;;;;;25.46;37.28906;939.6113;;;;
2021/09/25 10:22:28;;;;;;;13;3.4;;;;;;;25.48;36.9248;939.5925;;;;
2021/09/25 10:24:53;;;;;;;1.2;1.1;;;;;;;25.76;35.84863;939.65;;;;
2021/09/25 10:27:19;;;;;;;1.5;1.4;;;;;;;26.29;37.18066;939.6035;;;;
2021/09/25 10:29:44;;;;;;;1.6;1.2;;;;;;;26.82;35.34082;939.5799;;;;
2021/09/25 10:32:09;;;;;;;6;2.4;;;;;;;27.35;34.65918;939.657;;;;
2021/09/25 10:34:34;;;;;;;28.5;6.1;;;;;;;26.79;36.27441;939.6191;;;;
2021/09/25 10:36:59;;;;;;;17.6;5.1;;;;;;;27.01;36.30469;939.5969;;;;
2021/09/25 10:39:26;;;;;;;52.1;11.4;;;;;;;26.97;35.64941;939.5341;;;;
2021/09/25 10:41:49;;;;;;;205.3;35.4;;;;;;;26.91;35.37207;939.484;;;;
2021/09/25 10:44:19;;;;;;;981.8;202.2;;;;;;;26.62;35.90527;939.5133;;;;
2021/09/25 10:46:44;;;;;;;477.2;96.5;;;;;;;25.97;37.42578;939.4272;;;;
2021/09/25 10:49:09;;;;;;;17;4.2;;;;;;;26.6;35.9873;939.4755;;;;
2021/09/25 10:51:34;;;;;;;627.9;125.3;;;;;;;26.66;37.1875;939.4645;;;;
2021/09/25 10:53:59;;;;;;;32.6;5;;;;;;;26.41;37.03711;939.4686;;;;
2021/09/25 10:56:25;;;;;;;430.9;80.9;;;;;;;26.7;38.86133;939.4022;;;;
2021/09/25 10:58:50;;;;;;;874.2;177.7;;;;;;;26.65;37.38867;939.4172;;;;
2021/09/25 11:01:15;;;;;;;1261.2;223.8;;;;;;;26.94;38.95313;939.3591;;;;
2021/09/25 11:03:40;;;;;;;39.1;9;;;;;;;27.08;39.7959;939.313;;;;
2021/09/25 11:07:41;;;;;;;53.1;9.2;;;;;;;27.75;37.49121;939.3378;;;;
2021/09/25 11:10:03;;;;;;;1238.5;229.2;;;;;;;26.94;39.83008;939.2992;;;;
2021/09/25 11:12:28;;;;;;;525.4;89.1;;;;;;;26.58;41.0293;939.2715;;;;
2021/09/25 11:14:55;;;;;;;772.1;136;;;;;;;26.52;42.44531;939.2548;;;;
2021/09/25 11:17:19;;;;;;;957.4;161.3;;;;;;;26.45;41.25488;939.2512;;;;
2021/09/25 11:19:44;;;;;;;1451.1;243.4;;;;;;;25.73;42.0166;939.2181;;;;
2021/09/25 11:22:11;;;;;;;657.8;104.9;;;;;;;25.88;42.01758;939.2165;;;;
2021/09/25 11:24:36;;;;;;;484;87.1;;;;;;;25.61;42.89063;939.2299;;;;
2021/09/25 11:27:01;;;;;;;17.2;5.2;;;;;;;25.82;43.3125;939.134;;;;
2021/09/25 11:29:26;;;;;;;342.5;66.9;;;;;;;26.86;38.47266;939.0765;;;;
2021/09/25 11:31:51;;;;;;;876.8;159.9;;;;;;;26.5;41.38965;939.1409;;;;
2021/09/25 11:34:39;;;;;;;1705.5;346.1;;;;;;;26.27;38.44531;939.1511;;;;
2021/09/25 11:37:09;;;;;;;279.9;55.1;;;;;;;26.7;38.18555;939.0937;;;;
2021/09/25 11:39:34;;;;;;;388.6;72.3;;;;;;;27.35;36.73535;939.1114;;;;
2021/09/25 11:41:59;;;;;;;1306.3;244;;;;;;;26.89;38.03711;939.0917;;;;
2021/09/25 11:44:24;;;;;;;619.5;114.2;;;;;;;26.68;39.57031;939.0396;;;;
2021/09/25 11:46:50;;;;;;;1043.3;193.8;;;;;;;26.76;38.30957;939.0648;;;;
2021/09/25 11:49:15;;;;;;;1317.2;222.9;;;;;;;26.24;40.21777;939.0008;;;;
2021/09/25 11:51:45;;;;;;;1014.2;182.4;;;;;;;26.4;40.00684;939.0111;;;;
2021/09/25 11:54:07;;;;;;;468.3;82.5;;;;;;;26.43;39.84375;939.053;;;;
2021/09/25 11:56:34;;;;;;;931.9;172.8;;;;;;;26.92;39.54297;939.048;;;;
2021/09/25 11:59:01;;;;;;;1999.9;429.6;;;;;;;26.62;39.67188;938.9713;;;;
2021/09/25 12:01:26;;;;;;;1221.4;216.9;;;;;;;26.48;39.16211;938.976;;;;
2021/09/25 12:03:52;;;;;;;652.6;114;;;;;;;26.96;38.30273;938.9863;;;;
2021/09/25 12:06:16;;;;;;;1391.4;274.4;;;;;;;27.56;37.39355;938.9586;;;;
2021/09/25 12:08:42;;;;;;;1269;257.9;;;;;;;27.63;38.77637;938.9693;;;;
2021/09/25 12:11:07;;;;;;;809.2;133.3;;;;;;;28.16;36.51563;938.8998;;;;
2021/09/25 12:13:31;;;;;;;770.8;155.1;;;;;;;29.42;33.90137;938.8446;;;;
2021/09/25 12:15:57;;;;;;;1999.9;561.1;;;;;;;30.58;32.66211;938.8224;;;;
2021/09/25 12:18:22;;;;;;;1999.9;637.8;;;;;;;30.68;33.02832;938.7958;;;;
2021/09/25 12:20:47;;;;;;;1392.1;319.7;;;;;;;31.22;32.55273;938.7847;;;;
2021/09/25 12:23:12;;;;;;;1999.9;677.4;;;;;;;31.11;33.76563;938.7375;;;;
2021/09/25 12:25:38;;;;;;;1999.9;579.5;;;;;;;31.55;32.19336;938.7305;;;;
2021/09/25 12:28:07;;;;;;;829.7;179;;;;;;;33.13;30.34766;938.686;;;;
2021/09/25 12:30:32;;;;;;;1024.4;216.2;;;;;;;33.34;30.06152;938.5966;;;;
2021/09/25 12:32:57;;;;;;;1266.1;244.6;;;;;;;33.55;30.14746;938.5703;;;;
2021/09/25 12:35:23;;;;;;;291.6;59.6;;;;;;;34.03;29.24023;938.5969;;;;
2021/09/25 12:37:47;;;;;;;503.5;102.4;;;;;;;35.67;26.49414;938.6479;;;;
2021/09/25 12:40:12;;;;;;;107.2;25.6;;;;;;;37.5;23.77344;938.5867;;;;
2021/09/25 12:42:38;;;;;;;79.6;18.5;;;;;;;38.74;22.5;938.5206;;;;
2021/09/25 12:45:03;;;;;;;1080.3;243.5;;;;;;;37.35;24.67578;938.5485;;;;
2021/09/25 12:47:28;;;;;;;348.6;79.8;;;;;;;36.72;25.12598;938.5881;;;;
2021/09/25 12:49:53;;;;;;;394.4;86;;;;;;;37.46;24.72949;938.5806;;;;
2021/09/25 12:52:18;;;;;;;774.7;183.7;;;;;;;37.49;23.9668;938.4952;;;;
2021/09/25 12:54:45;;;;;;;509.4;107.2;;;;;;;37.24;23.20215;938.5231;;;;
2021/09/25 12:57:09;;;;;;;196.7;44.9;;;;;;;38.21;22.89941;938.5275;;;;
2021/09/25 12:59:34;;;;;;;274;57.6;;;;;;;38.8;22.49121;938.5295;;;;
2021/09/25 13:02:09;;;;;;;404.6;84.6;;;;;;;35.28;27.91992;938.555;;;;
2021/09/25 13:04:24;;;;;;;6.4;2.4;;;;;;;35.93;27.99609;938.5349;;;;
2021/09/25 13:06:49;;;;;;;187.5;31.4;;;;;;;36.44;26.76855;938.533;;;;
2021/09/25 13:09:15;;;;;;;368.9;56.8;;;;;;;35.28;28.16113;938.4855;;;;
2021/09/25 13:11:40;;;;;;;275.5;54.9;;;;;;;35.66;26.83105;938.467;;;;
2021/09/25 13:14:06;;;;;;;807.8;151;;;;;;;34.94;28.36914;938.3235;;;;
2021/09/25 13:16:31;;;;;;;89.2;22.5;;;;;;;34.39;29.10645;938.3205;;;;
2021/09/25 13:18:58;;;;;;;40.2;9.8;;;;;;;35.79;26.18652;938.325;;;;
2021/09/25 13:21:21;;;;;;;7.9;3.9;;;;;;;36.14;25.57715;938.2863;;;;
2021/09/25 13:23:46;;;;;;;206.1;42.8;;;;;;;37.3;23.84863;938.2797;;;;
2021/09/25 13:26:12;;;;;;;54.4;14.4;;;;;;;37.17;24.42285;938.2513;;;;
2021/09/25 13:28:37;;;;;;;25.7;8.1;;;;;;;36.89;25.50977;938.2553;;;;
2021/09/25 13:31:02;;;;;;;24.3;6.3;;;;;;;37.93;23.96582;938.2612;;;;
2021/09/25 13:33:28;;;;;;;79.4;17.5;;;;;;;38.31;23.91309;938.1887;;;;
2021/09/25 13:35:53;;;;;;;3.8;2.1;;;;;;;38.25;23.96973;938.1937;;;;
2021/09/25 13:41:59;;;;;;;12;4.5;;;;;;;37.21;24.63086;938.1972;;;;
2021/09/25 13:44:24;;;;;;;682.9;125.6;;;;;;;35.25;27.25391;938.1894;;;;
2021/09/25 13:46:49;;;;;;;500.8;104.3;;;;;;;35.81;26.79199;938.159;;;;
2021/09/25 13:49:14;;;;;;;137;34.1;;;;;;;36.36;26.02539;938.2238;;;;
2021/09/25 13:51:39;;;;;;;22.2;6.5;;;;;;;37.43;25.10449;938.1888;;;;
2021/09/25 13:54:06;;;;;;;203.8;44.7;;;;;;;37.82;24.09277;938.1998;;;;
2021/09/25 13:56:31;;;;;;;10.2;3.9;;;;;;;37.67;24.28027;938.1641;;;;
2021/09/25 13:58:56;;;;;;;11.7;4;;;;;;;37.98;24.1748;938.1802;;;;
2021/09/25 14:01:21;;;;;;;278.1;53.9;;;;;;;38.09;23.59766;938.1152;;;;
2021/09/25 14:03:46;;;;;;;3.8;1.9;;;;;;;37.9;23.86719;938.1849;;;;
2021/09/25 14:06:13;;;;;;;471.7;72.2;;;;;;;36.93;24.54395;938.1553;;;;
2021/09/25 14:08:37;;;;;;;14.8;4.7;;;;;;;37.33;24.22559;938.0641;;;;
2021/09/25 14:11:02;;;;;;;2.4;2;;;;;;;36.85;24.50293;938.1171;;;;
2021/09/25 14:13:27;;;;;;;1.4;1.3;;;;;;;36.18;25.60449;938.1365;;;;
2021/09/25 14:15:52;;;;;;;3.2;1.9;;;;;;;36.58;24.07715;938.0811;;;;
2021/09/25 14:18:18;;;;;;;7;3.2;;;;;;;36.52;24.26758;938.0851;;;;
2021/09/25 14:20:43;;;;;;;51.3;9.4;;;;;;;35.8;25.42578;938.0544;;;;
2021/09/25 14:23:09;;;;;;;25.9;5.3;;;;;;;34.93;26.14941;938.0378;;;;
2021/09/25 14:25:34;;;;;;;9.6;2.7;;;;;;;35.12;26.55762;937.9545;;;;
2021/09/25 14:27:59;;;;;;;24.3;5.6;;;;;;;35.06;26.49512;937.8663;;;;
2021/09/25 14:30:26;;;;;;;45.8;9.8;;;;;;;34.61;26.66211;937.9842;;;;
2021/09/25 14:32:51;;;;;;;7.1;2.8;;;;;;;33.8;27.7207;937.9771;;;;
2021/09/25 14:35:16;;;;;;;170.5;35.3;;;;;;;32.94;28.25781;937.9578;;;;
2021/09/25 14:37:42;;;;;;;8.3;2.3;;;;;;;31.91;30.29004;938.0247;;;;
2021/09/25 14:40:10;;;;;;;37.5;8.5;;;;;;;30.6;31.75586;937.9783;;;;
2021/09/25 14:42:35;;;;;;;22.6;4;;;;;;;29.37;33.63574;937.9447;;;;
2021/09/25 14:45:00;;;;;;;1.9;1.6;;;;;;;29.08;34.70898;937.9769;;;;
2021/09/25 14:47:25;;;;;;;2.6;1.8;;;;;;;28.67;35.34375;938.0013;;;;
2021/09/25 14:49:50;;;;;;;26.5;4.2;;;;;;;27.8;36.17773;938.0075;;;;
2021/09/25 14:54:41;;;;;;;1.7;1.4;;;;;;;27.28;37.61914;938.0365;;;;
2021/09/25 14:57:06;;;;;;;1.4;1.3;;;;;;;27.02;38.20215;937.9573;;;;
2021/09/25 14:59:31;;;;;;;1.7;1.2;;;;;;;26.8;38.77539;937.9359;;;;
2021/09/25 15:01:56;;;;;;;1.5;1.2;;;;;;;26.62;39.46973;937.9095;;;;
2021/09/25 15:04:23;;;;;;;2.3;1.3;;;;;;;26.51;39.70898;937.8825;;;;
2021/09/25 15:06:49;;;;;;;1.2;1.1;;;;;;;26.34;39.83691;937.8459;;;;
2021/09/25 15:09:12;;;;;;;1.2;1.1;;;;;;;26.11;41.37695;937.8608;;;;
2021/09/25 15:11:38;;;;;;;1.5;1.4;;;;;;;26.21;41.50488;937.8588;;;;
2021/09/25 15:14:36;;;;;;;1.3;1.2;;;;;;;26.32;41.7627;937.8088;;;;
2021/09/25 15:17:03;;;;;;;2.8;1.3;;;;;;;26.28;41.51074;937.8103;;;;
2021/09/25 15:19:28;;;;;;;1.4;1.3;;;;;;;26.19;41.58496;937.7125;;;;
2021/09/25 15:21:53;;;;;;;1.5;1.3;;;;;;;26.22;41.30469;937.7825;;;;
2021/09/25 15:24:18;;;;;;;1.6;1.2;;;;;;;26.15;41.46289;937.7764;;;;
2021/09/25 15:26:44;;;;;;;3.1;1.3;;;;;;;26.06;41.9043;937.8481;;;;
2021/09/25 15:29:09;;;;;;;1.4;1.3;;;;;;;26;41.99316;937.8323;;;;
2021/09/25 15:31:35;;;;;;;1.6;1.3;;;;;;;25.93;41.69141;937.897;;;;